Time;durP1;ratioP1;P1;durP2;ratioP2;P2;SDS_P1;SDS_P2;PMS_P1;PMS_P2;Temp;Humidity;BMP_temperature;BMP_pressure;BME280_temperature;BME280_humidity;BME280_pressure;Samples;Min_cycle;Max_cycle;Signal;HPM_P1;HPM_P2
2024/01/22 00:00:24;;;;;;;;;;;;;;;;;;5067319;28;19982;-75
2024/01/22 00:02:49;;;;;;;;;;;;;;;;;;5080661;28;19924;-76
2024/01/22 00:05:14;;;;;;;;;;;;;;;;;;5069407;28;19963;-76
2024/01/22 00:07:40;;;;;;;;;;;;;;;;;;5086419;28;20406;-76
2024/01/22 00:10:05;;;;;;;;;;;;;;;;;;5077831;28;19935;-76
2024/01/22 00:12:30;;;;;;;;;;;;;;;;;;5087669;28;19927;-75
2024/01/22 00:14:55;;;;;;;;;;;;;;;;;;5075577;28;19924;-76
2024/01/22 00:17:20;;;;;;;;;;;;;;;;;;5087560;28;19931;-76
2024/01/22 00:19:45;;;;;;;;;;;;;;;;;;5084654;28;19920;-75
2024/01/22 00:22:10;;;;;;;;;;;;;;;;;;5081629;28;19928;-76
2024/01/22 00:24:35;;;;;;;;;;;;;;;;;;5075747;28;19920;-75
2024/01/22 00:27:01;;;;;;;;;;;;;;;;;;5069707;28;19931;-75
2024/01/22 00:29:26;;;;;;;;;;;;;;;;;;5069802;28;19916;-76
2024/01/22 00:31:51;;;;;;;;;;;;;;;;;;5075187;28;19950;-76
2024/01/22 00:34:16;;;;;;;;;;;;;;;;;;5072070;28;19925;-75
2024/01/22 00:36:41;;;;;;;;;;;;;;;;;;5076702;28;19943;-75
2024/01/22 00:39:06;;;;;;;;;;;;;;;;;;5069197;28;20456;-76
2024/01/22 00:41:31;;;;;;;;;;;;;;;;;;5069499;28;19929;-76
2024/01/22 00:43:56;;;;;;;;;;;;;;;;;;5078274;28;20251;-76
2024/01/22 00:46:21;;;;;;;;;;;;;;;;;;5077378;28;19975;-76
2024/01/22 00:48:46;;;;;;;;;;;;;;;;;;5074396;28;20207;-75
2024/01/22 00:51:12;;;;;;;;;;;;;;;;;;5080889;28;20430;-75
2024/01/22 00:53:37;;;;;;;;;;;;;;;;;;5069053;28;19924;-75
2024/01/22 00:56:02;;;;;;;;;;;;;;;;;;5070039;28;19932;-75
2024/01/22 00:58:27;;;;;;;;;;;;;;;;;;5079539;28;19932;-76
2024/01/22 01:00:52;;;;;;;;;;;;;;;;;;5088769;28;19923;-76
2024/01/22 01:03:17;;;;;;;;;;;;;;;;;;5071988;28;19916;-75
2024/01/22 01:05:42;;;;;;;;;;;;;;;;;;5073515;28;19920;-75
2024/01/22 01:08:07;;;;;;;;;;;;;;;;;;5072539;28;19924;-77
2024/01/22 01:10:33;;;;;;;;;;;;;;;;;;5083024;28;19928;-76
2024/01/22 01:12:58;;;;;;;;;;;;;;;;;;5076796;28;19956;-75
2024/01/22 01:15:24;;;;;;;;;;;;;;;;;;5067603;28;20038;-75
2024/01/22 01:17:49;;;;;;;;;;;;;;;;;;5082388;28;20369;-75
2024/01/22 01:20:14;;;;;;;;;;;;;;;;;;5070944;28;20420;-75
2024/01/22 01:22:39;;;;;;;;;;;;;;;;;;5069854;28;19927;-77
2024/01/22 01:25:04;;;;;;;;;;;;;;;;;;5069015;28;20164;-75
2024/01/22 01:27:29;;;;;;;;;;;;;;;;;;5068796;28;19932;-75
2024/01/22 01:29:54;;;;;;;;;;;;;;;;;;5076661;28;19926;-76
2024/01/22 01:32:19;;;;;;;;;;;;;;;;;;5080022;28;19952;-75
2024/01/22 01:34:44;;;;;;;;;;;;;;;;;;5084816;28;20021;-75
2024/01/22 01:37:10;;;;;;;;;;;;;;;;;;5068718;28;19916;-76
2024/01/22 01:39:35;;;;;;;;;;;;;;;;;;5071201;28;19946;-75
2024/01/22 01:42:00;;;;;;;;;;;;;;;;;;5084387;28;20405;-75
2024/01/22 01:44:25;;;;;;;;;;;;;;;;;;5070797;28;20263;-75
2024/01/22 01:46:50;;;;;;;;;;;;;;;;;;5069473;28;19923;-75
2024/01/22 01:49:15;;;;;;;;;;;;;;;;;;5080120;28;19961;-76
2024/01/22 01:51:40;;;;;;;;;;;;;;;;;;5072635;28;19940;-75
2024/01/22 01:54:05;;;;;;;;;;;;;;;;;;5080883;28;19931;-76
2024/01/22 01:56:30;;;;;;;;;;;;;;;;;;5074737;28;19916;-75
2024/01/22 01:58:55;;;;;;;;;;;;;;;;;;5078747;28;19917;-76
2024/01/22 02:01:20;;;;;;;;;;;;;;;;;;5074264;28;20164;-75
2024/01/22 02:03:46;;;;;;;;;;;;;;;;;;5072180;28;20404;-75
2024/01/22 02:06:11;;;;;;;;;;;;;;;;;;5071446;28;19923;-76
2024/01/22 02:08:36;;;;;;;;;;;;;;;;;;5083267;28;20381;-75
2024/01/22 02:11:01;;;;;;;;;;;;;;;;;;5083424;28;19925;-76
2024/01/22 02:13:28;;;;;;;;;;;;;;;;;;5081330;28;19931;-74
2024/01/22 02:15:53;;;;;;;;;;;;;;;;;;5072233;28;19924;-77
2024/01/22 02:18:18;;;;;;;;;;;;;;;;;;5081748;28;19916;-75
2024/01/22 02:20:43;;;;;;;;;;;;;;;;;;5080629;28;19923;-75
2024/01/22 02:23:08;;;;;;;;;;;;;;;;;;5071597;28;19973;-74
2024/01/22 02:25:34;;;;;;;;;;;;;;;;;;5071649;28;19943;-75
2024/01/22 02:27:59;;;;;;;;;;;;;;;;;;5085073;28;20011;-74
2024/01/22 02:30:24;;;;;;;;;;;;;;;;;;5079007;28;19920;-75
2024/01/22 02:32:49;;;;;;;;;;;;;;;;;;5076003;28;19975;-75
2024/01/22 02:35:14;;;;;;;;;;;;;;;;;;5058353;28;19921;-75
2024/01/22 02:37:40;;;;;;;;;;;;;;;;;;5082395;28;19924;-74
2024/01/22 02:40:05;;;;;;;;;;;;;;;;;;5076569;28;20399;-76
2024/01/22 02:42:30;;;;;;;;;;;;;;;;;;5071646;28;19948;-75
2024/01/22 02:44:55;;;;;;;;;;;;;;;;;;5075046;28;20023;-75
2024/01/22 02:47:20;;;;;;;;;;;;;;;;;;5079177;28;19920;-75
2024/01/22 02:49:45;;;;;;;;;;;;;;;;;;5083442;28;19916;-77
2024/01/22 02:52:10;;;;;;;;;;;;;;;;;;5082799;28;19923;-74
2024/01/22 02:54:36;;;;;;;;;;;;;;;;;;5080679;28;20339;-74
2024/01/22 02:57:01;;;;;;;;;;;;;;;;;;5079518;28;20394;-75
2024/01/22 02:59:26;;;;;;;;;;;;;;;;;;5080154;28;20015;-75
2024/01/22 03:01:51;;;;;;;;;;;;;;;;;;5082839;28;20034;-75
2024/01/22 03:04:16;;;;;;;;;;;;;;;;;;5076770;28;19921;-75
2024/01/22 03:06:41;;;;;;;;;;;;;;;;;;5082535;28;20331;-75
2024/01/22 03:09:06;;;;;;;;;;;;;;;;;;5089995;28;20342;-75
2024/01/22 03:11:31;;;;;;;;;;;;;;;;;;5072238;28;19928;-76
2024/01/22 03:13:57;;;;;;;;;;;;;;;;;;5081143;28;19920;-76
2024/01/22 03:16:22;;;;;;;;;;;;;;;;;;5077971;28;19963;-75
2024/01/22 03:18:47;;;;;;;;;;;;;;;;;;5072026;28;19978;-75
2024/01/22 03:21:12;;;;;;;;;;;;;;;;;;5077816;28;20002;-75
2024/01/22 03:23:37;;;;;;;;;;;;;;;;;;5071576;28;20345;-76
2024/01/22 03:26:02;;;;;;;;;;;;;;;;;;5073674;28;19932;-75
2024/01/22 03:28:27;;;;;;;;;;;;;;;;;;5070687;28;19920;-76
2024/01/22 03:30:52;;;;;;;;;;;;;;;;;;5052399;28;19921;-75
2024/01/22 03:33:18;;;;;;;;;;;;;;;;;;5052541;28;19924;-75
2024/01/22 03:35:43;;;;;;;;;;;;;;;;;;5084144;28;20373;-75
2024/01/22 03:38:08;;;;;;;;;;;;;;;;;;5070567;28;19943;-75
2024/01/22 03:40:33;;;;;;;;;;;;;;;;;;5070406;28;20370;-75
2024/01/22 03:42:58;;;;;;;;;;;;;;;;;;5069407;28;19927;-75
2024/01/22 03:45:23;;;;;;;;;;;;;;;;;;5070183;28;19920;-75
2024/01/22 03:47:48;;;;;;;;;;;;;;;;;;5073312;28;20350;-75
2024/01/22 03:50:14;;;;;;;;;;;;;;;;;;5082256;28;19920;-76
2024/01/22 03:52:39;;;;;;;;;;;;;;;;;;5069643;28;19924;-75
2024/01/22 03:55:04;;;;;;;;;;;;;;;;;;5070698;28;19960;-75
2024/01/22 03:57:29;;;;;;;;;;;;;;;;;;5078289;28;20007;-75
2024/01/22 03:59:54;;;;;;;;;;;;;;;;;;5081612;28;20136;-75
2024/01/22 04:02:19;;;;;;;;;;;;;;;;;;5079044;28;19916;-75
2024/01/22 04:04:44;;;;;;;;;;;;;;;;;;5078056;28;20388;-74
2024/01/22 04:07:09;;;;;;;;;;;;;;;;;;5069899;28;20019;-75
2024/01/22 04:09:34;;;;;;;;;;;;;;;;;;5068842;28;19924;-74
2024/01/22 04:11:59;;;;;;;;;;;;;;;;;;5075121;28;19926;-75
2024/01/22 04:14:24;;;;;;;;;;;;;;;;;;5074464;28;19924;-75
2024/01/22 04:16:50;;;;;;;;;;;;;;;;;;5072940;28;20319;-75
2024/01/22 04:19:15;;;;;;;;;;;;;;;;;;5082123;28;19916;-75
2024/01/22 04:21:40;;;;;;;;;;;;;;;;;;5071857;28;19920;-75
2024/01/22 04:24:05;;;;;;;;;;;;;;;;;;5077839;28;19971;-75
2024/01/22 04:26:30;;;;;;;;;;;;;;;;;;5080488;28;20364;-75
2024/01/22 04:28:55;;;;;;;;;;;;;;;;;;5077854;28;19916;-75
2024/01/22 04:31:20;;;;;;;;;;;;;;;;;;5069538;28;19921;-76
2024/01/22 04:33:45;;;;;;;;;;;;;;;;;;5082617;28;19939;-75
2024/01/22 04:36:10;;;;;;;;;;;;;;;;;;5074487;28;20495;-75
2024/01/22 04:38:35;;;;;;;;;;;;;;;;;;5068817;28;19920;-75
2024/01/22 04:41:01;;;;;;;;;;;;;;;;;;5069310;28;19970;-75
2024/01/22 04:43:26;;;;;;;;;;;;;;;;;;5077998;28;19944;-75
2024/01/22 04:45:51;;;;;;;;;;;;;;;;;;5078002;28;19951;-75
2024/01/22 04:48:16;;;;;;;;;;;;;;;;;;5082153;28;19959;-76
2024/01/22 04:50:41;;;;;;;;;;;;;;;;;;5070540;28;19921;-75
2024/01/22 04:53:06;;;;;;;;;;;;;;;;;;5069413;28;20300;-75
2024/01/22 04:55:31;;;;;;;;;;;;;;;;;;5069843;28;19956;-76
2024/01/22 04:57:56;;;;;;;;;;;;;;;;;;5081045;28;19916;-75
2024/01/22 05:00:21;;;;;;;;;;;;;;;;;;5083279;28;19916;-75
2024/01/22 05:02:47;;;;;;;;;;;;;;;;;;5077425;28;19916;-75
2024/01/22 05:05:12;;;;;;;;;;;;;;;;;;5074781;28;19995;-75
2024/01/22 05:07:37;;;;;;;;;;;;;;;;;;5076642;28;20322;-76
2024/01/22 05:10:03;;;;;;;;;;;;;;;;;;5068560;28;20064;-75
2024/01/22 05:12:28;;;;;;;;;;;;;;;;;;5069125;28;20316;-76
2024/01/22 05:14:53;;;;;;;;;;;;;;;;;;5082450;28;20015;-75
2024/01/22 05:17:18;;;;;;;;;;;;;;;;;;5069238;28;19917;-75
2024/01/22 05:19:43;;;;;;;;;;;;;;;;;;5068681;28;19924;-76
2024/01/22 05:22:08;;;;;;;;;;;;;;;;;;5073879;28;20002;-76
2024/01/22 05:24:33;;;;;;;;;;;;;;;;;;5078532;28;19932;-75
2024/01/22 05:26:58;;;;;;;;;;;;;;;;;;5081599;28;20341;-75
2024/01/22 05:29:23;;;;;;;;;;;;;;;;;;5088991;28;19916;-75
2024/01/22 05:31:49;;;;;;;;;;;;;;;;;;5080471;28;20419;-75
2024/01/22 05:34:14;;;;;;;;;;;;;;;;;;5080095;28;19920;-76
2024/01/22 05:36:40;;;;;;;;;;;;;;;;;;5078409;28;19959;-75
2024/01/22 05:39:05;;;;;;;;;;;;;;;;;;5072475;28;20330;-75
2024/01/22 05:41:30;;;;;;;;;;;;;;;;;;5075202;28;19921;-73
2024/01/22 05:43:55;;;;;;;;;;;;;;;;;;5076388;28;19971;-74
2024/01/22 05:46:20;;;;;;;;;;;;;;;;;;5069591;28;20460;-73
2024/01/22 05:48:45;;;;;;;;;;;;;;;;;;5078364;28;19920;-74
2024/01/22 05:51:10;;;;;;;;;;;;;;;;;;5077640;28;19927;-73
2024/01/22 05:53:37;;;;;;;;;;;;;;;;;;5076761;28;19946;-74
2024/01/22 05:56:02;;;;;;;;;;;;;;;;;;5079995;28;19927;-74
2024/01/22 05:58:28;;;;;;;;;;;;;;;;;;5080211;28;19916;-73
2024/01/22 06:00:53;;;;;;;;;;;;;;;;;;5078801;28;19931;-73
2024/01/22 06:03:18;;;;;;;;;;;;;;;;;;5063837;28;19965;-74
2024/01/22 06:05:43;;;;;;;;;;;;;;;;;;5082865;28;20505;-73
2024/01/22 06:08:08;;;;;;;;;;;;;;;;;;5088011;28;19965;-73
2024/01/22 06:10:35;;;;;;;;;;;;;;;;;;5081507;28;19962;-74
2024/01/22 06:13:00;;;;;;;;;;;;;;;;;;5079979;28;19931;-74
2024/01/22 06:15:25;;;;;;;;;;;;;;;;;;5077290;28;19928;-74
2024/01/22 06:17:50;;;;;;;;;;;;;;;;;;5074569;28;19935;-73
2024/01/22 06:20:15;;;;;;;;;;;;;;;;;;5070398;28;20296;-74
2024/01/22 06:22:40;;;;;;;;;;;;;;;;;;5070206;28;20296;-73
2024/01/22 06:25:06;;;;;;;;;;;;;;;;;;5078434;28;19946;-74
2024/01/22 06:27:32;;;;;;;;;;;;;;;;;;5076933;28;20002;-73
2024/01/22 06:29:59;;;;;;;;;;;;;;;;;;5069545;28;20030;-74
2024/01/22 06:32:24;;;;;;;;;;;;;;;;;;5070719;28;19932;-73
2024/01/22 06:34:49;;;;;;;;;;;;;;;;;;5070660;28;19925;-74
2024/01/22 06:37:15;;;;;;;;;;;;;;;;;;5076178;28;19970;-74
2024/01/22 06:39:40;;;;;;;;;;;;;;;;;;5069462;28;20027;-74
2024/01/22 06:42:07;;;;;;;;;;;;;;;;;;5071346;28;19927;-74
2024/01/22 06:44:32;;;;;;;;;;;;;;;;;;5085979;28;19940;-74
2024/01/22 06:46:57;;;;;;;;;;;;;;;;;;5069987;28;19920;-74
2024/01/22 06:49:22;;;;;;;;;;;;;;;;;;5078323;28;19923;-74
2024/01/22 06:51:47;;;;;;;;;;;;;;;;;;5089647;28;20404;-74
2024/01/22 06:54:13;;;;;;;;;;;;;;;;;;5074615;28;19920;-74
2024/01/22 06:56:38;;;;;;;;;;;;;;;;;;5071315;28;20214;-73
2024/01/22 06:59:03;;;;;;;;;;;;;;;;;;5083964;28;19916;-74
2024/01/22 07:01:28;;;;;;;;;;;;;;;;;;5081547;28;20376;-73
2024/01/22 07:03:54;;;;;;;;;;;;;;;;;;5083006;28;20273;-74
2024/01/22 07:06:19;;;;;;;;;;;;;;;;;;5082696;28;19920;-74
2024/01/22 07:08:44;;;;;;;;;;;;;;;;;;5089978;28;19942;-74
2024/01/22 07:11:09;;;;;;;;;;;;;;;;;;5071989;28;19924;-73
2024/01/22 07:13:34;;;;;;;;;;;;;;;;;;5075097;28;20349;-74
2024/01/22 07:16:00;;;;;;;;;;;;;;;;;;5053597;28;19929;-73
2024/01/22 07:18:25;;;;;;;;;;;;;;;;;;5078825;28;19924;-74
2024/01/22 07:20:51;;;;;;;;;;;;;;;;;;5088554;28;19916;-74
2024/01/22 07:23:16;;;;;;;;;;;;;;;;;;5069971;28;20385;-73
2024/01/22 07:25:43;;;;;;;;;;;;;;;;;;5068590;28;22377;-74
2024/01/22 07:28:08;;;;;;;;;;;;;;;;;;5070463;28;19923;-73
2024/01/22 07:30:36;;;;;;;;;;;;;;;;;;5070625;28;19921;-68
2024/01/22 07:33:01;;;;;;;;;;;;;;;;;;5070252;28;19924;-68
2024/01/22 07:35:26;;;;;;;;;;;;;;;;;;5070103;28;20377;-68
2024/01/22 07:37:52;;;;;;;;;;;;;;;;;;5080954;28;19928;-68
2024/01/22 07:40:18;;;;;;;;;;;;;;;;;;5076332;28;20011;-68
2024/01/22 07:42:43;;;;;;;;;;;;;;;;;;5070464;28;19927;-68
2024/01/22 07:45:08;;;;;;;;;;;;;;;;;;5070524;28;19921;-67
2024/01/22 07:47:33;;;;;;;;;;;;;;;;;;5071355;28;20483;-68
2024/01/22 07:49:59;;;;;;;;;;;;;;;;;;5073146;28;19924;-68
2024/01/22 07:52:24;;;;;;;;;;;;;;;;;;5075247;28;21045;-67
2024/01/22 07:54:49;;;;;;;;;;;;;;;;;;5069739;28;19928;-67
2024/01/22 07:57:14;;;;;;;;;;;;;;;;;;5075619;28;19923;-67
2024/01/22 07:59:39;;;;;;;;;;;;;;;;;;5081166;28;19919;-67
2024/01/22 08:02:05;;;;;;;;;;;;;;;;;;5074742;28;19939;-68
2024/01/22 08:04:30;;;;;;;;;;;;;;;;;;5070046;28;20285;-67
2024/01/22 08:06:55;;;;;;;;;;;;;;;;;;5071680;28;19996;-67
2024/01/22 08:09:20;;;;;;;;;;;;;;;;;;5076492;28;19916;-67
2024/01/22 08:11:47;;;;;;;;;;;;;;;;;;5070114;28;19916;-67
2024/01/22 08:14:12;;;;;;;;;;;;;;;;;;5080671;28;20408;-67
2024/01/22 08:16:37;;;;;;;;;;;;;;;;;;5080095;28;20372;-67
2024/01/22 08:19:03;;;;;;;;;;;;;;;;;;5072868;28;19924;-67
2024/01/22 08:21:28;;;;;;;;;;;;;;;;;;5089079;28;19927;-67
2024/01/22 08:23:53;;;;;;;;;;;;;;;;;;5079249;28;19924;-67
2024/01/22 08:26:18;;;;;;;;;;;;;;;;;;5075917;28;19923;-67
2024/01/22 08:28:44;;;;;;;;;;;;;;;;;;5069849;28;20000;-67
2024/01/22 08:31:10;;;;;;;;;;;;;;;;;;5069654;28;20373;-67
2024/01/22 08:33:35;;;;;;;;;;;;;;;;;;5069938;28;20262;-67
2024/01/22 08:36:00;;;;;;;;;;;;;;;;;;5069446;28;19917;-67
2024/01/22 08:38:25;;;;;;;;;;;;;;;;;;5068465;28;19920;-67
2024/01/22 08:40:51;;;;;;;;;;;;;;;;;;5083934;28;20507;-67
2024/01/22 08:43:16;;;;;;;;;;;;;;;;;;5069960;28;19921;-67
2024/01/22 08:45:41;;;;;;;;;;;;;;;;;;5077703;28;20406;-67
2024/01/22 08:48:06;;;;;;;;;;;;;;;;;;5069147;28;20007;-68
2024/01/22 08:50:31;;;;;;;;;;;;;;;;;;5050617;28;19917;-67
2024/01/22 08:52:56;;;;;;;;;;;;;;;;;;5077775;28;19927;-67
2024/01/22 08:55:25;;;;;;;;;;;;;;;;;;5074929;28;19916;-67
2024/01/22 08:57:53;;;;;;;;;;;;;;;;;;5063605;28;19920;-67
2024/01/22 09:00:19;;;;;;;;;;;;;;;;;;5076816;28;19920;-67
2024/01/22 09:02:44;;;;;;;;;;;;;;;;;;5076113;28;19930;-67
2024/01/22 09:05:09;;;;;;;;;;;;;;;;;;5069037;28;19948;-67
2024/01/22 09:07:34;;;;;;;;;;;;;;;;;;5069329;28;19967;-68
2024/01/22 09:10:00;;;;;;;;;;;;;;;;;;5071002;28;19920;-67
2024/01/22 09:12:25;;;;;;;;;;;;;;;;;;5074116;28;19953;-67
2024/01/22 09:14:50;;;;;;;;;;;;;;;;;;5065361;28;19986;-67
2024/01/22 09:17:15;;;;;;;;;;;;;;;;;;5080648;28;19920;-67
2024/01/22 09:19:41;;;;;;;;;;;;;;;;;;5071317;28;20000;-67
2024/01/22 09:22:06;;;;;;;;;;;;;;;;;;5066913;28;19928;-68
2024/01/22 09:24:31;;;;;;;;;;;;;;;;;;5069442;28;19916;-67
2024/01/22 09:26:56;;;;;;;;;;;;;;;;;;5076349;28;19985;-67
2024/01/22 09:29:21;;;;;;;;;;;;;;;;;;5067464;28;20352;-67
2024/01/22 09:31:46;;;;;;;;;;;;;;;;;;5067954;28;19924;-67
2024/01/22 09:34:11;;;;;;;;;;;;;;;;;;5066699;28;19932;-67
2024/01/22 09:36:36;;;;;;;;;;;;;;;;;;5068415;28;19920;-67
2024/01/22 09:39:01;;;;;;;;;;;;;;;;;;5076174;28;19923;-67
2024/01/22 09:41:27;;;;;;;;;;;;;;;;;;5081726;28;19924;-67
2024/01/22 09:43:52;;;;;;;;;;;;;;;;;;5083745;28;20070;-67
2024/01/22 09:46:18;;;;;;;;;;;;;;;;;;5067820;28;20015;-67
2024/01/22 09:48:43;;;;;;;;;;;;;;;;;;5070094;28;20105;-67
2024/01/22 09:51:08;;;;;;;;;;;;;;;;;;5073306;28;19931;-67
2024/01/22 09:53:34;;;;;;;;;;;;;;;;;;5067904;28;19944;-67
2024/01/22 09:55:59;;;;;;;;;;;;;;;;;;5069502;28;19916;-67
2024/01/22 09:58:25;;;;;;;;;;;;;;;;;;5073519;28;19917;-67
2024/01/22 10:00:50;;;;;;;;;;;;;;;;;;5071963;28;20361;-67
2024/01/22 10:03:15;;;;;;;;;;;;;;;;;;5053556;28;19916;-67
2024/01/22 10:05:40;;;;;;;;;;;;;;;;;;5087932;28;19956;-67
2024/01/22 10:08:05;;;;;;;;;;;;;;;;;;5073415;28;19924;-67
2024/01/22 10:10:31;;;;;;;;;;;;;;;;;;5071632;28;19920;-67
2024/01/22 10:12:56;;;;;;;;;;;;;;;;;;5071434;28;19916;-67
2024/01/22 10:15:21;;;;;;;;;;;;;;;;;;5075728;28;20335;-67
2024/01/22 10:17:46;;;;;;;;;;;;;;;;;;5070987;28;20626;-67
2024/01/22 10:20:11;;;;;;;;;;;;;;;;;;5073025;28;19927;-68
2024/01/22 10:22:36;;;;;;;;;;;;;;;;;;5091353;28;19947;-67
2024/01/22 10:25:01;;;;;;;;;;;;;;;;;;5081337;28;19952;-67
2024/01/22 10:27:26;;;;;;;;;;;;;;;;;;5070689;28;20319;-67
2024/01/22 10:29:51;;;;;;;;;;;;;;;;;;5079129;28;19973;-67
2024/01/22 10:32:16;;;;;;;;;;;;;;;;;;5070838;28;19961;-68
2024/01/22 10:34:42;;;;;;;;;;;;;;;;;;5070851;28;19921;-67
2024/01/22 10:37:07;;;;;;;;;;;;;;;;;;5070207;28;19930;-67
2024/01/22 10:39:32;;;;;;;;;;;;;;;;;;5078968;28;20377;-67
2024/01/22 10:41:57;;;;;;;;;;;;;;;;;;5071675;28;19939;-67
2024/01/22 10:44:22;;;;;;;;;;;;;;;;;;5081895;28;20349;-67
2024/01/22 10:46:47;;;;;;;;;;;;;;;;;;5082971;28;19916;-67
2024/01/22 10:49:12;;;;;;;;;;;;;;;;;;5070343;28;20354;-67
2024/01/22 10:51:38;;;;;;;;;;;;;;;;;;5079061;28;19916;-67
2024/01/22 10:54:03;;;;;;;;;;;;;;;;;;5069634;28;19924;-67
2024/01/22 10:56:28;;;;;;;;;;;;;;;;;;5073649;28;19920;-67
2024/01/22 10:58:53;;;;;;;;;;;;;;;;;;5070194;28;19920;-67
2024/01/22 11:01:19;;;;;;;;;;;;;;;;;;5078507;28;19927;-67
2024/01/22 11:03:45;;;;;;;;;;;;;;;;;;5085710;28;19924;-67
2024/01/22 11:06:10;;;;;;;;;;;;;;;;;;5070970;28;20301;-67
2024/01/22 11:08:35;;;;;;;;;;;;;;;;;;5071211;28;19966;-67
2024/01/22 11:11:00;;;;;;;;;;;;;;;;;;5071150;28;19928;-67
2024/01/22 11:13:26;;;;;;;;;;;;;;;;;;5084055;28;19952;-67
2024/01/22 11:15:52;;;;;;;;;;;;;;;;;;5091090;28;19923;-66
2024/01/22 11:18:17;;;;;;;;;;;;;;;;;;5070981;28;19917;-67
2024/01/22 11:20:42;;;;;;;;;;;;;;;;;;5078837;28;19965;-67
2024/01/22 11:23:12;;;;;;;;;;;;;;;;;;5071172;28;19921;-67
2024/01/22 11:25:37;;;;;;;;;;;;;;;;;;5075505;28;20007;-67
2024/01/22 11:28:02;;;;;;;;;;;;;;;;;;5080126;28;20012;-67
2024/01/22 11:30:28;;;;;;;;;;;;;;;;;;5085563;28;19940;-66
2024/01/22 11:32:53;;;;;;;;;;;;;;;;;;5079234;28;19927;-66
2024/01/22 11:35:19;;;;;;;;;;;;;;;;;;5079020;28;19916;-67
2024/01/22 11:37:44;;;;;;;;;;;;;;;;;;5074173;28;19920;-67
2024/01/22 11:40:11;;;;;;;;;;;;;;;;;;5054498;28;19916;-67
2024/01/22 11:42:36;;;;;;;;;;;;;;;;;;5076730;28;19917;-67
2024/01/22 11:45:01;;;;;;;;;;;;;;;;;;5070822;28;20214;-67
2024/01/22 11:47:26;;;;;;;;;;;;;;;;;;5083896;28;19969;-67
2024/01/22 11:49:51;;;;;;;;;;;;;;;;;;5090282;28;19916;-67
2024/01/22 11:52:17;;;;;;;;;;;;;;;;;;5078515;28;19923;-67
2024/01/22 11:54:42;;;;;;;;;;;;;;;;;;5071103;28;20292;-67
2024/01/22 11:57:07;;;;;;;;;;;;;;;;;;5070489;28;20407;-67
2024/01/22 11:59:32;;;;;;;;;;;;;;;;;;5070337;28;19923;-67
2024/01/22 12:01:57;;;;;;;;;;;;;;;;;;5072478;28;19920;-67
2024/01/22 12:04:22;;;;;;;;;;;;;;;;;;5073754;28;19919;-67
2024/01/22 12:06:48;;;;;;;;;;;;;;;;;;5087543;28;19970;-67
2024/01/22 12:09:13;;;;;;;;;;;;;;;;;;5069693;28;20388;-67
2024/01/22 12:11:38;;;;;;;;;;;;;;;;;;5078738;28;19916;-66
2024/01/22 12:14:03;;;;;;;;;;;;;;;;;;5079094;28;19989;-67
2024/01/22 12:16:28;;;;;;;;;;;;;;;;;;5081924;28;20447;-67
2024/01/22 12:18:53;;;;;;;;;;;;;;;;;;5055002;28;19923;-67
2024/01/22 12:21:20;;;;;;;;;;;;;;;;;;5069288;28;19921;-67
2024/01/22 12:23:45;;;;;;;;;;;;;;;;;;5069760;28;19999;-67
2024/01/22 12:26:11;;;;;;;;;;;;;;;;;;5068382;28;20225;-67
2024/01/22 12:28:36;;;;;;;;;;;;;;;;;;5077130;28;19920;-67
2024/01/22 12:31:01;;;;;;;;;;;;;;;;;;5075970;28;19956;-67
2024/01/22 12:33:26;;;;;;;;;;;;;;;;;;5075074;28;19932;-67
2024/01/22 12:35:52;;;;;;;;;;;;;;;;;;5078822;28;19920;-67
2024/01/22 12:38:18;;;;;;;;;;;;;;;;;;5069961;28;20389;-67
2024/01/22 12:40:43;;;;;;;;;;;;;;;;;;5051875;28;19917;-67
2024/01/22 12:43:08;;;;;;;;;;;;;;;;;;5069751;28;19939;-67
2024/01/22 12:45:33;;;;;;;;;;;;;;;;;;5069557;28;20384;-67
2024/01/22 12:47:58;;;;;;;;;;;;;;;;;;5069035;28;20385;-68
2024/01/22 12:50:24;;;;;;;;;;;;;;;;;;5083740;28;19928;-68
2024/01/22 12:52:49;;;;;;;;;;;;;;;;;;5065961;28;19917;-69
2024/01/22 12:55:14;;;;;;;;;;;;;;;;;;5069529;28;19986;-69
2024/01/22 12:57:39;;;;;;;;;;;;;;;;;;5074574;28;19927;-68
2024/01/22 13:00:05;;;;;;;;;;;;;;;;;;5071822;28;19977;-67
2024/01/22 13:02:30;;;;;;;;;;;;;;;;;;5075049;28;19924;-68
2024/01/22 13:04:55;;;;;;;;;;;;;;;;;;5088583;28;19927;-68
2024/01/22 13:07:21;;;;;;;;;;;;;;;;;;5077407;28;19965;-67
2024/01/22 13:09:46;;;;;;;;;;;;;;;;;;5069379;28;19923;-67
2024/01/22 13:12:11;;;;;;;;;;;;;;;;;;5078552;28;20284;-68
2024/01/22 13:14:36;;;;;;;;;;;;;;;;;;5075439;28;20269;-68
2024/01/22 13:17:03;;;;;;;;;;;;;;;;;;5086349;28;19916;-68
2024/01/22 13:19:28;;;;;;;;;;;;;;;;;;5053984;28;19927;-68
2024/01/22 13:21:54;;;;;;;;;;;;;;;;;;5079184;28;19920;-68
2024/01/22 13:24:19;;;;;;;;;;;;;;;;;;5068338;28;19916;-68
2024/01/22 13:26:45;;;;;;;;;;;;;;;;;;5069336;28;20363;-68
2024/01/22 13:29:10;;;;;;;;;;;;;;;;;;5069363;28;19927;-68
2024/01/22 13:31:35;;;;;;;;;;;;;;;;;;5059400;28;19961;-68
2024/01/22 13:34:00;;;;;;;;;;;;;;;;;;5068190;28;19921;-68
2024/01/22 13:36:25;;;;;;;;;;;;;;;;;;5068462;28;19997;-68
2024/01/22 13:38:51;;;;;;;;;;;;;;;;;;5068998;28;19917;-68
2024/01/22 13:41:16;;;;;;;;;;;;;;;;;;5070536;28;19917;-67
2024/01/22 13:43:42;;;;;;;;;;;;;;;;;;5092116;28;19920;-67
2024/01/22 13:46:07;;;;;;;;;;;;;;;;;;5081056;28;19952;-68
2024/01/22 13:48:32;;;;;;;;;;;;;;;;;;5092035;28;20377;-68
2024/01/22 13:50:57;;;;;;;;;;;;;;;;;;5073143;28;20281;-68
2024/01/22 13:53:23;;;;;;;;;;;;;;;;;;5072676;28;20096;-67
2024/01/22 13:55:48;;;;;;;;;;;;;;;;;;5071771;28;19927;-68
2024/01/22 13:58:13;;;;;;;;;;;;;;;;;;5072604;28;19924;-68
2024/01/22 14:00:38;;;;;;;;;;;;;;;;;;5092784;28;20007;-68
2024/01/22 14:03:06;;;;;;;;;;;;;;;;;;5086435;28;19924;-68
2024/01/22 14:05:31;;;;;;;;;;;;;;;;;;5072952;28;19958;-68
2024/01/22 14:07:56;;;;;;;;;;;;;;;;;;5069325;28;19960;-68
2024/01/22 14:10:22;;;;;;;;;;;;;;;;;;5077407;28;20051;-68
2024/01/22 14:12:47;;;;;;;;;;;;;;;;;;5075061;28;20042;-68
2024/01/22 14:15:12;;;;;;;;;;;;;;;;;;5070341;28;20405;-68
2024/01/22 14:17:37;;;;;;;;;;;;;;;;;;5073483;28;20010;-68
2024/01/22 14:20:02;;;;;;;;;;;;;;;;;;5071654;28;19923;-68
2024/01/22 14:22:27;;;;;;;;;;;;;;;;;;5074822;28;19920;-69
2024/01/22 14:24:53;;;;;;;;;;;;;;;;;;5077485;28;19916;-68
2024/01/22 14:27:18;;;;;;;;;;;;;;;;;;5089739;28;19966;-68
2024/01/22 14:29:44;;;;;;;;;;;;;;;;;;5072283;28;20347;-68
2024/01/22 14:32:09;;;;;;;;;;;;;;;;;;5079608;28;19948;-68
2024/01/22 14:34:35;;;;;;;;;;;;;;;;;;5072316;28;20343;-68
2024/01/22 14:37:02;;;;;;;;;;;;;;;;;;5071370;28;19917;-68
2024/01/22 14:39:28;;;;;;;;;;;;;;;;;;5070919;28;20404;-68
2024/01/22 14:41:53;;;;;;;;;;;;;;;;;;5082792;28;19920;-68
2024/01/22 14:44:18;;;;;;;;;;;;;;;;;;5070857;28;19920;-68
2024/01/22 14:46:43;;;;;;;;;;;;;;;;;;5071657;28;19927;-68
2024/01/22 14:49:08;;;;;;;;;;;;;;;;;;5083059;28;20416;-68
2024/01/22 14:51:34;;;;;;;;;;;;;;;;;;5085504;28;19928;-68
2024/01/22 14:53:59;;;;;;;;;;;;;;;;;;5071006;28;20289;-68
2024/01/22 14:56:25;;;;;;;;;;;;;;;;;;5073008;28;20317;-68
2024/01/22 14:58:50;;;;;;;;;;;;;;;;;;5083071;28;19928;-68
2024/01/22 15:01:15;;;;;;;;;;;;;;;;;;5082187;28;19988;-68
2024/01/22 15:03:40;;;;;;;;;;;;;;;;;;5091715;28;20369;-68
2024/01/22 15:06:05;;;;;;;;;;;;;;;;;;5090993;28;19916;-69
2024/01/22 15:08:31;;;;;;;;;;;;;;;;;;5070792;28;19927;-68
2024/01/22 15:10:56;;;;;;;;;;;;;;;;;;5077608;28;20006;-68
2024/01/22 15:13:21;;;;;;;;;;;;;;;;;;5074715;28;20231;-68
2024/01/22 15:15:46;;;;;;;;;;;;;;;;;;5056817;28;19922;-68
2024/01/22 15:18:11;;;;;;;;;;;;;;;;;;5079598;28;19917;-68
2024/01/22 15:20:36;;;;;;;;;;;;;;;;;;5071139;28;20378;-67
2024/01/22 15:23:01;;;;;;;;;;;;;;;;;;5071492;28;20307;-67
2024/01/22 15:25:26;;;;;;;;;;;;;;;;;;5076917;28;19928;-67
2024/01/22 15:27:51;;;;;;;;;;;;;;;;;;5077160;28;19916;-67
2024/01/22 15:30:16;;;;;;;;;;;;;;;;;;5080266;28;19921;-67
2024/01/22 15:32:41;;;;;;;;;;;;;;;;;;5056497;28;19916;-67
2024/01/22 15:35:07;;;;;;;;;;;;;;;;;;5083112;28;19920;-67
2024/01/22 15:37:32;;;;;;;;;;;;;;;;;;5070989;28;19916;-67
2024/01/22 15:39:57;;;;;;;;;;;;;;;;;;5069636;28;20034;-67
2024/01/22 15:42:22;;;;;;;;;;;;;;;;;;5076883;28;20319;-67
2024/01/22 15:44:47;;;;;;;;;;;;;;;;;;5074287;28;19923;-67
2024/01/22 15:47:12;;;;;;;;;;;;;;;;;;5078205;28;19927;-67
2024/01/22 15:49:37;;;;;;;;;;;;;;;;;;5069938;28;19936;-67
2024/01/22 15:52:03;;;;;;;;;;;;;;;;;;5070444;28;19920;-67
2024/01/22 15:54:28;;;;;;;;;;;;;;;;;;5070643;28;19947;-67
2024/01/22 15:56:53;;;;;;;;;;;;;;;;;;5070428;28;19947;-67
2024/01/22 15:59:18;;;;;;;;;;;;;;;;;;5070004;28;19939;-67
2024/01/22 16:01:43;;;;;;;;;;;;;;;;;;5062032;28;19969;-67
2024/01/22 16:04:08;;;;;;;;;;;;;;;;;;5076032;28;19920;-67
2024/01/22 16:06:33;;;;;;;;;;;;;;;;;;5069038;28;19916;-67
2024/01/22 16:08:58;;;;;;;;;;;;;;;;;;5082236;28;20407;-67
2024/01/22 16:11:25;;;;;;;;;;;;;;;;;;5089883;28;20015;-67
2024/01/22 16:13:50;;;;;;;;;;;;;;;;;;5081776;28;19968;-67
2024/01/22 16:16:15;;;;;;;;;;;;;;;;;;5086516;28;19955;-67
2024/01/22 16:18:40;;;;;;;;;;;;;;;;;;5070041;28;19920;-67
2024/01/22 16:21:06;;;;;;;;;;;;;;;;;;5069988;28;19916;-67
2024/01/22 16:23:31;;;;;;;;;;;;;;;;;;5069371;28;20381;-67
2024/01/22 16:25:56;;;;;;;;;;;;;;;;;;5076782;28;20408;-67
2024/01/22 16:28:21;;;;;;;;;;;;;;;;;;5069205;28;20005;-67
2024/01/22 16:30:46;;;;;;;;;;;;;;;;;;5069068;28;19958;-67